createdAt,value
2018-05-15T00:02:48.903Z,99.90
2018-05-15T00:05:16.866Z,99.90
2018-05-15T00:07:44.873Z,99.90
2018-05-15T00:10:12.831Z,99.90
2018-05-15T00:12:40.808Z,99.90
2018-05-15T00:15:08.760Z,99.90
2018-05-15T00:17:36.747Z,99.90
2018-05-15T00:20:04.687Z,99.90
2018-05-15T00:22:32.669Z,99.90
2018-05-15T00:25:00.632Z,99.90
2018-05-15T00:27:28.636Z,99.90
2018-05-15T00:29:56.609Z,99.90
2018-05-15T00:32:24.595Z,99.90
2018-05-15T00:34:52.919Z,99.90
2018-05-15T00:37:20.891Z,99.90
2018-05-15T00:39:48.855Z,99.90
2018-05-15T00:42:16.831Z,99.90
2018-05-15T00:44:44.787Z,99.90
2018-05-15T00:47:12.770Z,99.90
2018-05-15T00:49:40.336Z,99.90
2018-05-15T00:52:09.018Z,99.90
2018-05-15T00:54:36.607Z,99.90
2018-05-15T00:57:04.600Z,99.90
2018-05-15T00:59:32.191Z,99.90
2018-05-15T01:01:59.755Z,99.90
2018-05-15T01:04:27.512Z,99.90
2018-05-15T01:06:55.859Z,99.90
2018-05-15T01:09:23.441Z,99.90
2018-05-15T01:11:50.988Z,99.90
2018-05-15T01:14:18.573Z,99.90
2018-05-15T01:16:46.899Z,99.90
2018-05-15T01:19:14.472Z,99.90
2018-05-15T01:21:42.128Z,99.90
2018-05-15T01:24:09.706Z,99.90
2018-05-15T01:26:37.288Z,99.90
2018-05-15T01:29:05.656Z,99.90
2018-05-15T01:31:33.360Z,99.90
2018-05-15T01:34:00.912Z,99.90
2018-05-15T01:36:28.542Z,99.90
2018-05-15T01:38:56.107Z,99.90
2018-05-15T01:41:23.673Z,99.90
2018-05-15T01:43:51.236Z,99.90
2018-05-15T01:46:19.580Z,99.90
2018-05-15T01:48:47.172Z,99.90
2018-05-15T01:51:14.740Z,99.90
2018-05-15T01:53:43.064Z,99.90
2018-05-15T01:56:10.634Z,99.90
2018-05-15T01:58:38.616Z,99.90
2018-05-15T02:01:06.589Z,99.90
2018-05-15T02:03:34.581Z,99.90
2018-05-15T02:06:03.195Z,99.90
2018-05-15T02:08:30.775Z,99.90
2018-05-15T02:10:58.725Z,99.90
2018-05-15T02:13:27.320Z,99.90
2018-05-15T02:15:54.863Z,99.90
2018-05-15T02:18:22.471Z,99.90
2018-05-15T02:20:50.036Z,99.90
2018-05-15T02:23:17.619Z,99.90
2018-05-15T02:25:45.232Z,99.90
2018-05-15T02:28:12.867Z,99.90
2018-05-15T02:30:41.196Z,99.90
2018-05-15T02:33:08.809Z,99.90
2018-05-15T02:35:37.130Z,99.90
2018-05-15T02:38:05.085Z,99.90
2018-05-15T02:40:32.641Z,99.90
2018-05-15T02:43:00.235Z,99.90
2018-05-15T02:45:27.904Z,99.90
2018-05-15T02:47:55.485Z,99.90
2018-05-15T02:50:23.077Z,99.90
2018-05-15T02:52:50.656Z,99.90
2018-05-15T02:55:18.628Z,99.90
2018-05-15T02:57:46.213Z,99.90
2018-05-15T03:00:14.195Z,99.90
2018-05-15T03:02:41.772Z,99.90
2018-05-15T03:05:09.364Z,99.90
2018-05-15T03:07:37.330Z,99.90
2018-05-15T03:10:04.943Z,99.90
2018-05-15T03:12:32.500Z,99.90
2018-05-15T03:15:00.480Z,99.90
2018-05-15T03:17:28.091Z,99.90
2018-05-15T03:19:55.674Z,99.90
2018-05-15T03:22:23.220Z,99.90
2018-05-15T03:24:50.793Z,99.90
2018-05-15T03:27:18.360Z,99.90
2018-05-15T03:29:46.679Z,99.90
2018-05-15T03:32:14.659Z,99.90
2018-05-15T03:34:43.493Z,99.90
2018-05-15T03:37:11.091Z,99.90
2018-05-15T03:39:38.647Z,99.90
2018-05-15T03:42:06.220Z,99.90
2018-05-15T03:44:33.796Z,99.90
2018-05-15T03:47:02.199Z,99.90
2018-05-15T03:49:29.774Z,99.90
2018-05-15T03:51:57.356Z,99.90
2018-05-15T03:54:24.924Z,99.90
2018-05-15T03:56:52.518Z,99.90
2018-05-15T03:59:20.864Z,99.90
2018-05-15T04:02:00.217Z,99.90
2018-05-15T04:07:14.995Z,99.90
2018-05-15T04:09:42.571Z,99.90
2018-05-15T04:12:11.064Z,99.90
2018-05-15T04:14:39.500Z,99.90
2018-05-15T04:17:07.056Z,99.90
2018-05-15T04:19:34.623Z,99.90
2018-05-15T04:22:02.193Z,99.90
2018-05-15T04:24:29.762Z,99.90
2018-05-15T04:26:57.321Z,99.90
2018-05-15T04:29:24.927Z,99.90
2018-05-15T04:31:52.503Z,99.90
2018-05-15T04:34:20.083Z,99.90
2018-05-15T04:36:48.643Z,99.90
2018-05-15T04:39:16.233Z,99.90
2018-05-15T04:41:43.815Z,99.90
2018-05-15T04:44:11.389Z,99.90
2018-05-15T04:46:39.835Z,99.90
2018-05-15T04:49:07.404Z,99.90
2018-05-15T04:51:35.629Z,99.90
2018-05-15T04:54:03.208Z,99.90
2018-05-15T04:56:30.800Z,99.90
2018-05-15T04:58:58.353Z,99.90
2018-05-15T05:01:25.938Z,99.90
2018-05-15T05:03:53.600Z,99.90
2018-05-15T05:06:21.195Z,99.90
2018-05-15T05:08:49.708Z,99.90
2018-05-15T05:11:17.400Z,98.40
2018-05-15T05:13:44.969Z,98.70
2018-05-15T05:16:12.623Z,95.90
2018-05-15T05:18:40.172Z,93.70
2018-05-15T05:21:07.759Z,91.80
2018-05-15T05:23:35.298Z,87.60
2018-05-15T05:26:03.756Z,87.70
2018-05-15T05:28:31.462Z,81.00
2018-05-15T05:30:59.031Z,78.30
2018-05-15T05:33:26.603Z,76.50
2018-05-15T05:35:54.193Z,74.30
2018-05-15T05:38:21.773Z,76.30
2018-05-15T05:40:49.436Z,73.70
2018-05-15T05:43:18.103Z,72.40
2018-05-15T05:45:45.664Z,73.50
2018-05-15T05:48:13.820Z,69.10
2018-05-15T05:50:42.148Z,68.90
2018-05-15T05:53:09.811Z,68.90
2018-05-15T05:55:37.369Z,70.00
2018-05-15T05:58:04.977Z,70.20
2018-05-15T06:00:33.424Z,63.80
2018-05-15T06:03:01.058Z,63.90
2018-05-15T06:05:28.640Z,63.00
2018-05-15T06:07:59.107Z,62.30
2018-05-15T06:10:27.517Z,60.40
2018-05-15T06:12:55.094Z,60.30
2018-05-15T06:15:23.044Z,64.40
2018-05-15T06:17:50.616Z,63.20
2018-05-15T06:20:20.127Z,62.10
2018-05-15T06:22:47.740Z,62.30
2018-05-15T06:25:16.080Z,62.10
2018-05-15T06:27:43.667Z,62.00
2018-05-15T06:30:11.250Z,61.10
2018-05-15T06:32:39.712Z,59.60
2018-05-15T06:35:07.936Z,59.60
2018-05-15T06:37:36.853Z,61.60
2018-05-15T06:40:04.430Z,60.90
2018-05-15T06:42:31.983Z,60.50
2018-05-15T06:44:59.591Z,61.50
2018-05-15T06:47:27.939Z,63.40
2018-05-15T06:49:55.521Z,63.20
2018-05-15T06:52:23.869Z,61.90
2018-05-15T06:54:51.432Z,61.90
2018-05-15T06:57:19.078Z,60.30
2018-05-15T06:59:46.658Z,59.20
2018-05-15T07:02:14.216Z,57.80
2018-05-15T07:04:41.973Z,57.70
2018-05-15T07:07:09.519Z,58.40
2018-05-15T07:09:37.108Z,58.80
2018-05-15T07:12:04.687Z,58.10
2018-05-15T07:14:33.068Z,56.10
2018-05-15T07:17:01.466Z,56.90
2018-05-15T07:19:29.203Z,56.80
2018-05-15T07:21:56.768Z,59.30
2018-05-15T07:24:24.346Z,57.00
2018-05-15T07:26:52.711Z,56.60
2018-05-15T07:29:21.051Z,54.90
2018-05-15T07:31:48.736Z,54.90
2018-05-15T07:34:16.321Z,55.80
2018-05-15T07:36:44.646Z,56.00
2018-05-15T07:39:12.226Z,55.80
2018-05-15T07:41:39.976Z,57.20
2018-05-15T07:44:07.536Z,56.40
2018-05-15T07:46:35.144Z,57.50
2018-05-15T07:49:02.723Z,57.20
2018-05-15T07:51:30.293Z,57.00
2018-05-15T07:53:58.555Z,57.10
2018-05-15T07:56:26.891Z,59.00
2018-05-15T07:58:54.465Z,58.80
2018-05-15T08:01:22.037Z,57.30
2018-05-15T08:03:49.604Z,57.50
2018-05-15T08:06:17.238Z,56.10
2018-05-15T08:08:45.604Z,56.60
2018-05-15T08:11:13.151Z,56.60
2018-05-15T08:13:40.725Z,57.10
2018-05-15T08:16:09.109Z,55.40
2018-05-15T08:18:36.678Z,55.40
2018-05-15T08:21:04.264Z,56.10
2018-05-15T08:23:31.864Z,54.70
2018-05-15T08:25:59.419Z,56.90
2018-05-15T08:28:27.000Z,55.10
2018-05-15T08:30:54.759Z,54.40
2018-05-15T08:33:22.235Z,55.60
2018-05-15T08:35:49.795Z,56.30
2018-05-15T08:38:18.130Z,56.30
2018-05-15T08:40:46.471Z,55.60
2018-05-15T08:43:14.054Z,55.50
2018-05-15T08:45:42.828Z,56.10
2018-05-15T08:48:11.194Z,56.00
2018-05-15T08:50:39.553Z,58.80
2018-05-15T08:53:07.137Z,58.80
2018-05-15T08:55:34.706Z,56.60
2018-05-15T08:58:03.052Z,59.10
2018-05-15T09:00:31.531Z,59.70
2018-05-15T09:02:59.920Z,58.00
2018-05-15T09:05:27.500Z,58.10
2018-05-15T09:07:55.839Z,60.50
2018-05-15T09:10:23.421Z,60.70
2018-05-15T09:12:50.988Z,57.10
2018-05-15T09:15:18.572Z,59.70
2018-05-15T09:17:46.140Z,59.10
2018-05-15T09:20:13.716Z,58.90
2018-05-15T09:22:42.148Z,58.10
2018-05-15T09:25:09.731Z,58.00
2018-05-15T09:27:37.357Z,58.60
